Andover, Maine
Current Conditions -  °F | °C
As of 12:52 PM on Wednesday 28 Jan 2015 (Local Time) from KBML Reporting Station
Broken Clouds Broken Clouds  
Wind Chill:   Ceiling: 2800
Heat Index: 16°   Visibility: 10mi
Dew Point:   Wind: 10mph
Humidity: 57%   Direction: 330°NNW
Pressure: 29.94"   Gusts: 17mph
Location:  44.64°N, 70.75°W
Report Text: KBML 281752Z AUTO 33009G15KT 10SM BKN028 M09/M16 A2994 RMK AO2 SLP164 60000 T10891161 11089 21144 51004
Loading
Personal Weather Stations






























Interactive Weather Map New forecast layout! Learn more

10-Day Weather Forecast

Advertisements
Track Severe Weather on mobile